Wetterdaten: aktuell Freitag, 21.09.2018 07:35
Datum Zeit Temp. A. Temp. 2 Feuchte A. Luftdruck Regen Wind Richtung Richtung Sonnenschein Windben
21.09.2018 07:35 17,6 C 17,2 C 71 % 1001,4 hPa 0,0 l/m 8,0 km/h (2 Bft) S 180 0 min 14,5 km/h (3 Bft)
21.09.2018 07:30 17,5 C 17,2 C 70 % 1001,5 hPa 0,0 l/m 8,0 km/h (2 Bft) S-SO 157 0 min 14,5 km/h (3 Bft)
21.09.2018 07:25 17,4 C 17,2 C 71 % 1001,6 hPa 0,0 l/m 8,0 km/h (2 Bft) S 180 0 min 12,9 km/h (3 Bft)
21.09.2018 07:20 17,3 C 17,2 C 71 % 1001,7 hPa 0,0 l/m 8,0 km/h (2 Bft) S 180 5 min 19,3 km/h (3 Bft)
21.09.2018 07:15 17,2 C 17,2 C 71 % 1001,8 hPa 0,0 l/m 8,0 km/h (2 Bft) S 180 0 min 16,1 km/h (3 Bft)
21.09.2018 07:10 17,1 C 16,7 C 71 % 1001,8 hPa 0,0 l/m 8,0 km/h (2 Bft) S-SO 157 0 min 20,9 km/h (4 Bft)
21.09.2018 07:05 17,1 C 16,7 C 71 % 1002,0 hPa 0,0 l/m 8,0 km/h (2 Bft) S 180 0 min 24,1 km/h (4 Bft)
21.09.2018 07:00 17,0 C 16,7 C 71 % 1002,1 hPa 0,0 l/m 9,7 km/h (2 Bft) S-SO 157 0 min 17,7 km/h (3 Bft)
21.09.2018 06:55 16,9 C 16,7 C 71 % 1002,2 hPa 0,0 l/m 8,0 km/h (2 Bft) S 180 0 min 14,5 km/h (3 Bft)
21.09.2018 06:50 16,9 C 16,7 C 72 % 1002,5 hPa 0,0 l/m 8,0 km/h (2 Bft) S 180 0 min 14,5 km/h (3 Bft)
21.09.2018 06:45 16,8 C 16,7 C 72 % 1002,5 hPa 0,0 l/m 8,0 km/h (2 Bft) S-SO 157 0 min 17,7 km/h (3 Bft)
21.09.2018 06:40 16,8 C 16,1 C 72 % 1002,6 hPa 0,0 l/m 8,0 km/h (2 Bft) S 180 0 min 19,3 km/h (3 Bft)
21.09.2018 06:35 16,7 C 16,1 C 72 % 1002,6 hPa 0,0 l/m 6,4 km/h (2 Bft) S 180 0 min 14,5 km/h (3 Bft)
21.09.2018 06:30 16,7 C 16,1 C 72 % 1002,7 hPa 0,0 l/m 8,0 km/h (2 Bft) S 180 0 min 12,9 km/h (3 Bft)
21.09.2018 06:25 16,7 C 16,1 C 72 % 1002,9 hPa 0,0 l/m 6,4 km/h (2 Bft) S 180 0 min 12,9 km/h (3 Bft)
21.09.2018 06:20 16,7 C 16,1 C 72 % 1003,1 hPa 0,0 l/m 6,4 km/h (2 Bft) S 180 0 min 14,5 km/h (3 Bft)
21.09.2018 06:15 16,7 C 16,1 C 72 % 1003,1 hPa 0,0 l/m 8,0 km/h (2 Bft) S-SO 157 0 min 16,1 km/h (3 Bft)
21.09.2018 06:10 16,7 C 16,1 C 72 % 1003,3 hPa 0,0 l/m 8,0 km/h (2 Bft) S 180 0 min 14,5 km/h (3 Bft)
21.09.2018 06:05 16,7 C 16,1 C 72 % 1003,5 hPa 0,0 l/m 6,4 km/h (2 Bft) S 180 0 min 16,1 km/h (3 Bft)
21.09.2018 06:00 16,7 C 16,1 C 72 % 1003,6 hPa 0,0 l/m 6,4 km/h (2 Bft) S-SO 157 0 min 14,5 km/h (3 Bft)
21.09.2018 05:55 16,7 C 16,1 C 72 % 1003,8 hPa 0,0 l/m 6,4 km/h (2 Bft) S 180 0 min 14,5 km/h (3 Bft)
21.09.2018 05:50 16,7 C 16,1 C 71 % 1003,9 hPa 0,0 l/m 6,4 km/h (2 Bft) S 180 0 min 12,9 km/h (3 Bft)
21.09.2018 05:45 16,7 C 16,1 C 72 % 1004,1 hPa 0,0 l/m 6,4 km/h (2 Bft) S 180 0 min 16,1 km/h (3 Bft)
21.09.2018 05:40 16,6 C 16,1 C 72 % 1004,2 hPa 0,0 l/m 8,0 km/h (2 Bft) S 180 0 min 12,9 km/h (3 Bft)
21.09.2018 05:35 16,6 C 15,6 C 72 % 1004,3 hPa 0,0 l/m 6,4 km/h (2 Bft) S 180 0 min 16,1 km/h (3 Bft)
21.09.2018 05:30 16,6 C 15,6 C 72 % 1004,3 hPa 0,0 l/m 6,4 km/h (2 Bft) S-SO 157 0 min 12,9 km/h (3 Bft)
21.09.2018 05:25 16,6 C 15,6 C 72 % 1004,4 hPa 0,0 l/m 6,4 km/h (2 Bft) S 180 0 min 12,9 km/h (3 Bft)
21.09.2018 05:20 16,5 C 15,6 C 73 % 1004,5 hPa 0,0 l/m 6,4 km/h (2 Bft) S-SO 157 0 min 12,9 km/h (3 Bft)
21.09.2018 05:15 16,5 C 15,6 C 73 % 1004,7 hPa 0,0 l/m 6,4 km/h (2 Bft) S 180 0 min 12,9 km/h (3 Bft)
21.09.2018 05:10 16,5 C 15,6 C 73 % 1004,7 hPa 0,0 l/m 4,8 km/h (1 Bft) S-SO 157 0 min 11,3 km/h (2 Bft)
21.09.2018 05:05 16,5 C 15,6 C 73 % 1004,9 hPa 0,0 l/m 4,8 km/h (1 Bft) S 180 0 min 9,7 km/h (2 Bft)
21.09.2018 05:00 16,5 C 15,6 C 73 % 1004,9 hPa 0,0 l/m 4,8 km/h (1 Bft) S 180 0 min 9,7 km/h (2 Bft)
21.09.2018 04:55 16,5 C 15,6 C 73 % 1005,0 hPa 0,0 l/m 4,8 km/h (1 Bft) S 180 0 min 9,7 km/h (2 Bft)
21.09.2018 04:50 16,6 C 15,6 C 73 % 1005,1 hPa 0,0 l/m 4,8 km/h (1 Bft) S 180 0 min 14,5 km/h (3 Bft)
21.09.2018 04:45 16,6 C 15,6 C 72 % 1005,1 hPa 0,0 l/m 4,8 km/h (1 Bft) S 180 0 min 11,3 km/h (2 Bft)
21.09.2018 04:40 16,7 C 16,1 C 72 % 1005,1 hPa 0,0 l/m 6,4 km/h (2 Bft) S 180 0 min 14,5 km/h (3 Bft)
21.09.2018 04:35 16,7 C 15,6 C 72 % 1005,2 hPa 0,0 l/m 4,8 km/h (1 Bft) S 180 0 min 9,7 km/h (2 Bft)
21.09.2018 04:30 16,7 C 16,1 C 72 % 1005,3 hPa 0,0 l/m 4,8 km/h (1 Bft) S 180 0 min 12,9 km/h (3 Bft)
21.09.2018 04:25 16,7 C 16,1 C 72 % 1005,5 hPa 0,0 l/m 6,4 km/h (2 Bft) S 180 0 min 16,1 km/h (3 Bft)
21.09.2018 04:20 16,6 C 15,6 C 73 % 1005,6 hPa 0,0 l/m 4,8 km/h (1 Bft) S 180 0 min 11,3 km/h (2 Bft)
21.09.2018 04:15 16,7 C 15,6 C 72 % 1005,7 hPa 0,0 l/m 6,4 km/h (2 Bft) S 180 0 min 11,3 km/h (2 Bft)
21.09.2018 04:10 16,7 C 15,6 C 72 % 1005,8 hPa 0,0 l/m 4,8 km/h (1 Bft) S-SO 157 0 min 11,3 km/h (2 Bft)
21.09.2018 04:05 16,8 C 16,1 C 72 % 1005,8 hPa 0,0 l/m 4,8 km/h (1 Bft) S 180 0 min 11,3 km/h (2 Bft)
21.09.2018 04:00 16,9 C 16,1 C 72 % 1006,0 hPa 0,0 l/m 4,8 km/h (1 Bft) S 180 0 min 9,7 km/h (2 Bft)
21.09.2018 03:55 16,9 C 16,1 C 72 % 1006,1 hPa 0,0 l/m 6,4 km/h (2 Bft) S 180 0 min 12,9 km/h (3 Bft)
21.09.2018 03:50 16,9 C 16,1 C 72 % 1006,2 hPa 0,0 l/m 4,8 km/h (1 Bft) S 180 0 min 14,5 km/h (3 Bft)
21.09.2018 03:45 16,9 C 16,1 C 71 % 1006,3 hPa 0,0 l/m 6,4 km/h (2 Bft) S 180 0 min 17,7 km/h (3 Bft)
21.09.2018 03:40 17,0 C 16,1 C 71 % 1006,2 hPa 0,0 l/m 6,4 km/h (2 Bft) S 180 0 min 16,1 km/h (3 Bft)
21.09.2018 03:35 17,1 C 16,1 C 71 % 1006,3 hPa 0,0 l/m 4,8 km/h (1 Bft) S-SO 157 0 min 12,9 km/h (3 Bft)
21.09.2018 03:30 17,1 C 16,7 C 71 % 1006,3 hPa 0,0 l/m 6,4 km/h (2 Bft) S 180 0 min 11,3 km/h (2 Bft)
21.09.2018 03:25 17,1 C 16,7 C 71 % 1006,4 hPa 0,0 l/m 6,4 km/h (2 Bft) S 180 0 min 12,9 km/h (3 Bft)
21.09.2018 03:20 17,2 C 16,7 C 71 % 1006,4 hPa 0,0 l/m 6,4 km/h (2 Bft) S 180 0 min 12,9 km/h (3 Bft)
21.09.2018 03:15 17,1 C 16,7 C 71 % 1006,5 hPa 0,0 l/m 6,4 km/h (2 Bft) S 180 0 min 11,3 km/h (2 Bft)
21.09.2018 03:10 17,1 C 16,7 C 71 % 1006,5 hPa 0,0 l/m 6,4 km/h (2 Bft) S 180 0 min 14,5 km/h (3 Bft)
21.09.2018 03:05 17,1 C 16,7 C 71 % 1006,6 hPa 0,0 l/m 8,0 km/h (2 Bft) S 180 0 min 16,1 km/h (3 Bft)
21.09.2018 03:00 17,1 C 16,7 C 71 % 1006,6 hPa 0,0 l/m 4,8 km/h (1 Bft) S 180 0 min 12,9 km/h (3 Bft)
21.09.2018 02:55 17,0 C 16,1 C 71 % 1006,8 hPa 0,0 l/m 6,4 km/h (2 Bft) S 180 0 min 14,5 km/h (3 Bft)
21.09.2018 02:50 17,0 C 16,1 C 71 % 1006,8 hPa 0,0 l/m 6,4 km/h (2 Bft) S 180 0 min 12,9 km/h (3 Bft)
21.09.2018 02:45 17,0 C 16,1 C 71 % 1006,9 hPa 0,0 l/m 6,4 km/h (2 Bft) S-SO 157 0 min 16,1 km/h (3 Bft)
21.09.2018 02:40 16,9 C 16,1 C 72 % 1007,0 hPa 0,0 l/m 6,4 km/h (2 Bft) S 180 0 min 16,1 km/h (3 Bft)
21.09.2018 02:35 16,9 C 16,1 C 72 % 1007,1 hPa 0,0 l/m 6,4 km/h (2 Bft) S 180 0 min 11,3 km/h (2 Bft)
21.09.2018 02:30 16,9 C 16,1 C 72 % 1007,2 hPa 0,0 l/m 4,8 km/h (1 Bft) S-SO 157 0 min 12,9 km/h (3 Bft)
21.09.2018 02:25 16,9 C 16,1 C 72 % 1007,2 hPa 0,0 l/m 4,8 km/h (1 Bft) S-SO 157 0 min 9,7 km/h (2 Bft)
21.09.2018 02:20 17,0 C 15,6 C 72 % 1007,3 hPa 0,0 l/m 4,8 km/h (1 Bft) S-SO 157 0 min 8,0 km/h (2 Bft)
21.09.2018 02:15 17,1 C 15,6 C 71 % 1007,4 hPa 0,0 l/m 3,2 km/h (1 Bft) S-SO 157 0 min 9,7 km/h (2 Bft)
21.09.2018 02:10 17,2 C 15,6 C 71 % 1007,5 hPa 0,0 l/m 3,2 km/h (1 Bft) S-SO 157 0 min 8,0 km/h (2 Bft)
21.09.2018 02:05 17,3 C 16,1 C 71 % 1007,6 hPa 0,0 l/m 4,8 km/h (1 Bft) S-SO 157 0 min 12,9 km/h (3 Bft)
21.09.2018 02:00 17,3 C 16,1 C 71 % 1007,6 hPa 0,0 l/m 4,8 km/h (1 Bft) S-SO 157 0 min 12,9 km/h (3 Bft)
21.09.2018 01:55 17,4 C 16,1 C 71 % 1007,8 hPa 0,0 l/m 4,8 km/h (1 Bft) S-SO 157 0 min 12,9 km/h (3 Bft)
21.09.2018 01:50 17,4 C 16,1 C 71 % 1007,8 hPa 0,0 l/m 4,8 km/h (1 Bft) S-SO 157 0 min 9,7 km/h (2 Bft)
21.09.2018 01:45 17,4 C 16,1 C 71 % 1008,0 hPa 0,0 l/m 4,8 km/h (1 Bft) S-SO 157 0 min 11,3 km/h (2 Bft)
21.09.2018 01:40 17,4 C 16,1 C 71 % 1008,0 hPa 0,0 l/m 4,8 km/h (1 Bft) S-SO 157 0 min 8,0 km/h (2 Bft)
21.09.2018 01:35 17,4 C 16,1 C 71 % 1008,1 hPa 0,0 l/m 4,8 km/h (1 Bft) S 180 0 min 8,0 km/h (2 Bft)
21.09.2018 01:30 17,4 C 16,1 C 71 % 1008,1 hPa 0,0 l/m 4,8 km/h (1 Bft) S-SO 157 0 min 8,0 km/h (2 Bft)
21.09.2018 01:25 17,5 C 16,7 C 71 % 1008,2 hPa 0,0 l/m 4,8 km/h (1 Bft) S-SO 157 0 min 9,7 km/h (2 Bft)
21.09.2018 01:20 17,4 C 16,1 C 72 % 1008,3 hPa 0,0 l/m 4,8 km/h (1 Bft) S 180 0 min 9,7 km/h (2 Bft)
21.09.2018 01:15 17,4 C 16,1 C 72 % 1008,4 hPa 0,0 l/m 3,2 km/h (1 Bft) S 180 0 min 8,0 km/h (2 Bft)
21.09.2018 01:10 17,4 C 16,1 C 72 % 1008,6 hPa 0,0 l/m 4,8 km/h (1 Bft) S-SO 157 0 min 11,3 km/h (2 Bft)
21.09.2018 01:05 17,5 C 16,1 C 72 % 1008,7 hPa 0,0 l/m 4,8 km/h (1 Bft) S-SO 157 0 min 11,3 km/h (2 Bft)
21.09.2018 01:00 17,6 C 16,1 C 72 % 1008,8 hPa 0,0 l/m 4,8 km/h (1 Bft) S-SO 157 0 min 8,0 km/h (2 Bft)
21.09.2018 00:55 17,7 C 16,1 C 71 % 1008,9 hPa 0,0 l/m 3,2 km/h (1 Bft) S 180 0 min 9,7 km/h (2 Bft)
21.09.2018 00:50 17,7 C 16,7 C 71 % 1008,9 hPa 0,0 l/m 3,2 km/h (1 Bft) S-SO 157 0 min 9,7 km/h (2 Bft)
21.09.2018 00:45 17,7 C 16,7 C 71 % 1009,0 hPa 0,0 l/m 3,2 km/h (1 Bft) S-SO 157 0 min 8,0 km/h (2 Bft)
21.09.2018 00:40 17,7 C 16,7 C 72 % 1009,2 hPa 0,0 l/m 3,2 km/h (1 Bft) S 180 0 min 8,0 km/h (2 Bft)
21.09.2018 00:35 17,6 C 16,7 C 72 % 1009,2 hPa 0,0 l/m 3,2 km/h (1 Bft) S-SO 157 0 min 6,4 km/h (2 Bft)
21.09.2018 00:30 17,6 C 16,7 C 72 % 1009,3 hPa 0,0 l/m 1,6 km/h (1 Bft) S 180 0 min 3,2 km/h (1 Bft)
21.09.2018 00:25 17,6 C 16,7 C 72 % 1009,3 hPa 0,0 l/m 1,6 km/h (1 Bft) S 180 0 min 4,8 km/h (1 Bft)
21.09.2018 00:20 17,7 C 16,7 C 72 % 1009,3 hPa 0,0 l/m 1,6 km/h (1 Bft) S 180 0 min 4,8 km/h (1 Bft)
21.09.2018 00:15 17,6 C 16,7 C 72 % 1009,5 hPa 0,0 l/m 3,2 km/h (1 Bft) S-SO 157 0 min 6,4 km/h (2 Bft)
21.09.2018 00:10 17,6 C 16,7 C 72 % 1009,5 hPa 0,0 l/m 3,2 km/h (1 Bft) S 180 0 min 6,4 km/h (2 Bft)
21.09.2018 00:05 17,7 C 16,1 C 72 % 1009,6 hPa 0,0 l/m 3,2 km/h (1 Bft) S-SO 157 0 min 6,4 km/h (2 Bft)
21.09.2018 00:00 17,7 C 16,7 C 72 % 1009,6 hPa 0,0 l/m 3,2 km/h (1 Bft) S-SO 157 0 min 6,4 km/h (2 Bft)
_ Min-Zeit 05:10 02:10 07:30 07:35 - 00:20 - - - 00:30
Minimum _ 16,4 C 15,6 C 70 % 1001,4 hPa - 1,6 km/h (1 Bft) - - - 3,2 km/h (1 Bft)
_ Max-Zeit 00:00 07:15 04:20 00:00 00:00 07:00 - - 07:20 07:05
Maximum _ 17,8 C 17,2 C 73 % 1009,6 hPa 0,0 l/m 9,7 km/h
S-SO (2 Bft)
- - 5 min 24,1 km/h
S-SO (4 Bft)
Durchschnitt _ 17,0 C 16,2 C 72 % 1005,9 hPa #0,0 l/m 5,6 km/h (1 Bft) S - #5 min. 12,3 km/h (3 Bft)